Station History

Weather Underground - logo

Station Historical Data
Daily Summary for February 22, 2018 Units:  Both    English   Metric
« Previous Day
Next Day »
Daily Weekly Monthly Yearly Custom
  High: Low: Average:
Temperature: 58.8 °F /  14.9 °C 30.0 °F /  -1.1 °C 44.2 °F /  6.8 °C
Dew Point: 40.1 °F /  4.5 °C 26.1 °F /  -3.3 °C 30.6 °F /  -0.8 °C
Humidity: 89 % 31 % 63 %
Wind Speed: 9.2 mph /  14.8 km/h - 1.4 mph /  2.3 km/h
Wind Gust: 9.2 mph /  14.8 km/h - -
Wind:- - WSW
Pressure: 30.27 in /  1024.9 hPa 30.14 in /  1020.5 hPa -
Precipitation: 0.02 in /  0.51 mm    
Historical Graphs
 
 
Tabular Data for February 22, 2018
Time Temperature Dew Point Pressure Wind Wind Speed Wind Gust Humidity Rainfall Rate (Hourly)
00:04 35.4 °F /  1.9 °C 28.3 °F /  -2.1 °C 30.23 in /  1023.6 hPa ESE 1.2 mph /  1.9 km/h 1.2 mph /  1.9 km/h 75 % 0.00 in /  0 mm
00:09 34.6 °F /  1.4 °C 27.8 °F /  -2.3 °C 30.23 in /  1023.6 hPa Calm     76 % 0.00 in /  0 mm
00:14 34.4 °F /  1.3 °C 27.9 °F /  -2.3 °C 30.23 in /  1023.6 hPa Calm     77 % 0.00 in /  0 mm
00:19 34.2 °F /  1.2 °C 28.4 °F /  -2 °C 30.23 in /  1023.6 hPa Calm     79 % 0.00 in /  0 mm
00:24 33.9 °F /  1.1 °C 28.4 °F /  -2 °C 30.23 in /  1023.6 hPa Calm     80 % 0.00 in /  0 mm
00:29 33.5 °F /  0.8 °C 28.3 °F /  -2.1 °C 30.23 in /  1023.6 hPa Calm     81 % 0.00 in /  0 mm
00:34 33.2 °F /  0.7 °C 28.6 °F /  -1.9 °C 30.23 in /  1023.6 hPa Calm     83 % 0.00 in /  0 mm
00:39 33.0 °F /  0.6 °C 28.4 °F /  -2 °C 30.23 in /  1023.6 hPa Calm     83 % 0.00 in /  0 mm
00:44 32.8 °F /  0.4 °C 28.2 °F /  -2.1 °C 30.23 in /  1023.6 hPa Calm     83 % 0.00 in /  0 mm
00:49 32.7 °F /  0.4 °C 28.4 °F /  -2 °C 30.23 in /  1023.6 hPa Calm     84 % 0.00 in /  0 mm
00:54 32.7 °F /  0.4 °C 28.4 °F /  -2 °C 30.23 in /  1023.6 hPa Calm     84 % 0.00 in /  0 mm
00:59 32.7 °F /  0.4 °C 28.4 °F /  -2 °C 30.23 in /  1023.6 hPa Calm     84 % 0.00 in /  0 mm
01:04 33.0 °F /  0.6 °C 28.4 °F /  -2 °C 30.23 in /  1023.6 hPa Calm     83 % 0.00 in /  0 mm
01:09 33.0 °F /  0.6 °C 28.1 °F /  -2.2 °C 30.23 in /  1023.6 hPa Calm     82 % 0.00 in /  0 mm
01:14 32.8 °F /  0.4 °C 27.9 °F /  -2.3 °C 30.23 in /  1023.6 hPa Calm     82 % 0.00 in /  0 mm
01:19 32.8 °F /  0.4 °C 27.9 °F /  -2.3 °C 30.23 in /  1023.6 hPa Calm     82 % 0.00 in /  0 mm
01:24 32.6 °F /  0.3 °C 27.4 °F /  -2.6 °C 30.22 in /  1023.2 hPa Calm     81 % 0.00 in /  0 mm
01:30 32.5 °F /  0.3 °C 27.3 °F /  -2.6 °C 30.23 in /  1023.6 hPa Calm     81 % 0.00 in /  0 mm
01:35 32.3 °F /  0.2 °C 27.1 °F /  -2.7 °C 30.23 in /  1023.6 hPa Calm     81 % 0.00 in /  0 mm
01:40 32.4 °F /  0.2 °C 27.8 °F /  -2.3 °C 30.23 in /  1023.6 hPa Calm     83 % 0.00 in /  0 mm
01:45 32.3 °F /  0.2 °C 27.7 °F /  -2.4 °C 30.23 in /  1023.6 hPa Calm     83 % 0.00 in /  0 mm
01:50 32.2 °F /  0.1 °C 27.6 °F /  -2.4 °C 30.23 in /  1023.6 hPa Calm     83 % 0.00 in /  0 mm
01:55 32.0 °F /  0 °C 27.7 °F /  -2.4 °C 30.23 in /  1023.6 hPa Calm     84 % 0.00 in /  0 mm
02:00 31.8 °F /  -0.1 °C 27.8 °F /  -2.3 °C 30.23 in /  1023.6 hPa Calm     85 % 0.00 in /  0 mm
02:05 31.6 °F /  -0.2 °C 27.9 °F /  -2.3 °C 30.23 in /  1023.6 hPa Calm     86 % 0.00 in /  0 mm
02:10 31.6 °F /  -0.2 °C 27.9 °F /  -2.3 °C 30.23 in /  1023.6 hPa Calm     86 % 0.00 in /  0 mm
02:15 31.4 °F /  -0.3 °C 28.0 °F /  -2.2 °C 30.23 in /  1023.6 hPa Calm     87 % 0.00 in /  0 mm
02:20 31.5 °F /  -0.3 °C 28.1 °F /  -2.2 °C 30.22 in /  1023.2 hPa Calm     87 % 0.00 in /  0 mm
02:25 31.4 °F /  -0.3 °C 28.0 °F /  -2.2 °C 30.23 in /  1023.6 hPa Calm     87 % 0.00 in /  0 mm
02:30 31.4 °F /  -0.3 °C 27.7 °F /  -2.4 °C 30.22 in /  1023.2 hPa ESE 1.2 mph /  1.9 km/h   86 % 0.00 in /  0 mm
02:35 31.2 °F /  -0.4 °C 27.5 °F /  -2.5 °C 30.22 in /  1023.2 hPa Calm     86 % 0.00 in /  0 mm
02:40 31.1 °F /  -0.5 °C 27.4 °F /  -2.6 °C 30.22 in /  1023.2 hPa Calm     86 % 0.00 in /  0 mm
02:45 31.0 °F /  -0.6 °C 27.3 °F /  -2.6 °C 30.22 in /  1023.2 hPa Calm     86 % 0.00 in /  0 mm
02:50 31.1 °F /  -0.5 °C 26.8 °F /  -2.9 °C 30.21 in /  1022.9 hPa Calm     84 % 0.00 in /  0 mm
02:55 31.3 °F /  -0.4 °C 26.4 °F /  -3.1 °C 30.21 in /  1022.9 hPa Calm     82 % 0.00 in /  0 mm
03:00 31.0 °F /  -0.6 °C 26.1 °F /  -3.3 °C 30.21 in /  1022.9 hPa Calm     82 % 0.00 in /  0 mm
03:05 30.8 °F /  -0.7 °C 26.2 °F /  -3.2 °C 30.21 in /  1022.9 hPa Calm     83 % 0.00 in /  0 mm
03:10 30.6 °F /  -0.8 °C 26.1 °F /  -3.3 °C 30.21 in /  1022.9 hPa Calm     83 % 0.00 in /  0 mm
03:15 30.4 °F /  -0.9 °C 26.1 °F /  -3.3 °C 30.22 in /  1023.2 hPa Calm     84 % 0.00 in /  0 mm
03:20 30.3 °F /  -0.9 °C 26.3 °F /  -3.2 °C 30.22 in /  1023.2 hPa Calm     85 % 0.00 in /  0 mm
03:25 30.2 °F /  -1 °C 26.5 °F /  -3.1 °C 30.22 in /  1023.2 hPa Calm     86 % 0.00 in /  0 mm
03:30 30.1 °F /  -1.1 °C 26.4 °F /  -3.1 °C 30.21 in /  1022.9 hPa Calm     86 % 0.00 in /  0 mm
03:35 30.1 °F /  -1.1 °C 26.4 °F /  -3.1 °C 30.22 in /  1023.2 hPa Calm     86 % 0.00 in /  0 mm
03:40 30.0 °F /  -1.1 °C 26.3 °F /  -3.2 °C 30.21 in /  1022.9 hPa Calm     86 % 0.00 in /  0 mm
03:45 30.0 °F /  -1.1 °C 26.3 °F /  -3.2 °C 30.21 in /  1022.9 hPa Calm     86 % 0.00 in /  0 mm
03:50 30.2 °F /  -1 °C 26.5 °F /  -3.1 °C 30.21 in /  1022.9 hPa Calm     86 % 0.00 in /  0 mm
03:55 30.4 °F /  -0.9 °C 26.7 °F /  -2.9 °C 30.22 in /  1023.2 hPa Calm     86 % 0.00 in /  0 mm
04:00 30.4 °F /  -0.9 °C 26.4 °F /  -3.1 °C 30.22 in /  1023.2 hPa Calm     85 % 0.00 in /  0 mm
04:05 30.3 °F /  -0.9 °C 26.3 °F /  -3.2 °C 30.22 in /  1023.2 hPa Calm     85 % 0.00 in /  0 mm
04:10 30.1 °F /  -1.1 °C 26.1 °F /  -3.3 °C 30.22 in /  1023.2 hPa Calm     85 % 0.00 in /  0 mm
04:15 30.2 °F /  -1 °C 26.5 °F /  -3.1 °C 30.22 in /  1023.2 hPa Calm     86 % 0.00 in /  0 mm
04:20 30.5 °F /  -0.8 °C 26.5 °F /  -3.1 °C 30.22 in /  1023.2 hPa Calm     85 % 0.00 in /  0 mm
04:25 30.6 °F /  -0.8 °C 26.6 °F /  -3 °C 30.22 in /  1023.2 hPa Calm     85 % 0.00 in /  0 mm
04:30 30.6 °F /  -0.8 °C 26.3 °F /  -3.2 °C 30.22 in /  1023.2 hPa Calm     84 % 0.00 in /  0 mm
04:35 30.6 °F /  -0.8 °C 26.6 °F /  -3 °C 30.22 in /  1023.2 hPa Calm     85 % 0.00 in /  0 mm
04:40 30.7 °F /  -0.7 °C 26.4 °F /  -3.1 °C 30.22 in /  1023.2 hPa Calm     84 % 0.00 in /  0 mm
04:45 30.6 °F /  -0.8 °C 26.3 °F /  -3.2 °C 30.22 in /  1023.2 hPa Calm     84 % 0.00 in /  0 mm
04:50 30.6 °F /  -0.8 °C 26.3 °F /  -3.2 °C 30.22 in /  1023.2 hPa Calm     84 % 0.00 in /  0 mm
04:55 30.5 °F /  -0.8 °C 26.2 °F /  -3.2 °C 30.22 in /  1023.2 hPa Calm     84 % 0.00 in /  0 mm
05:00 30.5 °F /  -0.8 °C 26.2 °F /  -3.2 °C 30.22 in /  1023.2 hPa Calm     84 % 0.00 in /  0 mm
05:05 30.7 °F /  -0.7 °C 26.4 °F /  -3.1 °C 30.22 in /  1023.2 hPa Calm     84 % 0.00 in /  0 mm
05:10 30.5 °F /  -0.8 °C 26.2 °F /  -3.2 °C 30.22 in /  1023.2 hPa Calm     84 % 0.00 in /  0 mm
05:15 30.5 °F /  -0.8 °C 26.8 °F /  -2.9 °C 30.22 in /  1023.2 hPa Calm     86 % 0.00 in /  0 mm
05:21 30.4 °F /  -0.9 °C 26.7 °F /  -2.9 °C 30.22 in /  1023.2 hPa Calm     86 % 0.00 in /  0 mm
05:26 30.3 °F /  -0.9 °C 26.6 °F /  -3 °C 30.22 in /  1023.2 hPa Calm     86 % 0.00 in /  0 mm
05:31 30.2 °F /  -1 °C 26.5 °F /  -3.1 °C 30.22 in /  1023.2 hPa Calm     86 % 0.00 in /  0 mm
05:36 30.0 °F /  -1.1 °C 26.3 °F /  -3.2 °C 30.22 in /  1023.2 hPa Calm     86 % 0.00 in /  0 mm
05:41 30.0 °F /  -1.1 °C 26.3 °F /  -3.2 °C 30.22 in /  1023.2 hPa Calm     86 % 0.00 in /  0 mm
05:46 30.4 °F /  -0.9 °C 27.0 °F /  -2.8 °C 30.23 in /  1023.6 hPa Calm     87 % 0.00 in /  0 mm
05:51 30.6 °F /  -0.8 °C 26.9 °F /  -2.8 °C 30.22 in /  1023.2 hPa Calm     86 % 0.00 in /  0 mm
05:56 30.9 °F /  -0.6 °C 26.9 °F /  -2.8 °C 30.23 in /  1023.6 hPa Calm     85 % 0.00 in /  0 mm
06:01 31.0 °F /  -0.6 °C 26.7 °F /  -2.9 °C 30.23 in /  1023.6 hPa Calm     84 % 0.00 in /  0 mm
06:06 31.0 °F /  -0.6 °C 26.4 °F /  -3.1 °C 30.23 in /  1023.6 hPa Calm     83 % 0.00 in /  0 mm
06:11 31.2 °F /  -0.4 °C 26.6 °F /  -3 °C 30.24 in /  1023.9 hPa Calm     83 % 0.00 in /  0 mm
06:16 31.4 °F /  -0.3 °C 26.8 °F /  -2.9 °C 30.24 in /  1023.9 hPa Calm     83 % 0.00 in /  0 mm
06:21 31.4 °F /  -0.3 °C 26.8 °F /  -2.9 °C 30.24 in /  1023.9 hPa Calm     83 % 0.00 in /  0 mm
06:26 31.0 °F /  -0.6 °C 26.7 °F /  -2.9 °C 30.24 in /  1023.9 hPa Calm     84 % 0.00 in /  0 mm
06:31 30.6 °F /  -0.8 °C 26.6 °F /  -3 °C 30.24 in /  1023.9 hPa Calm     85 % 0.00 in /  0 mm
06:36 30.4 °F /  -0.9 °C 26.7 °F /  -2.9 °C 30.25 in /  1024.3 hPa Calm     86 % 0.00 in /  0 mm
06:41 30.5 °F /  -0.8 °C 26.8 °F /  -2.9 °C 30.25 in /  1024.3 hPa Calm     86 % 0.00 in /  0 mm
06:46 30.5 °F /  -0.8 °C 26.8 °F /  -2.9 °C 30.25 in /  1024.3 hPa Calm     86 % 0.00 in /  0 mm
06:51 30.7 °F /  -0.7 °C 27.0 °F /  -2.8 °C 30.25 in /  1024.3 hPa Calm     86 % 0.00 in /  0 mm
06:56 30.8 °F /  -0.7 °C 27.1 °F /  -2.7 °C 30.25 in /  1024.3 hPa Calm     86 % 0.00 in /  0 mm
07:01 31.0 °F /  -0.6 °C 27.3 °F /  -2.6 °C 30.25 in /  1024.3 hPa Calm     86 % 0.00 in /  0 mm
07:06 31.5 °F /  -0.3 °C 27.5 °F /  -2.5 °C 30.25 in /  1024.3 hPa Calm     85 % 0.00 in /  0 mm
07:11 31.7 °F /  -0.2 °C 27.4 °F /  -2.6 °C 30.25 in /  1024.3 hPa Calm     84 % 0.00 in /  0 mm
07:16 32.0 °F /  0 °C 27.4 °F /  -2.6 °C 30.25 in /  1024.3 hPa Calm     83 % 0.00 in /  0 mm
07:21 32.3 °F /  0.2 °C 27.7 °F /  -2.4 °C 30.25 in /  1024.3 hPa Calm     83 % 0.00 in /  0 mm
07:26 32.6 °F /  0.3 °C 28.0 °F /  -2.2 °C 30.25 in /  1024.3 hPa Calm     83 % 0.00 in /  0 mm
07:31 32.9 °F /  0.5 °C 28.9 °F /  -1.7 °C 30.26 in /  1024.6 hPa Calm     85 % 0.00 in /  0 mm
07:36 32.9 °F /  0.5 °C 28.9 °F /  -1.7 °C 30.26 in /  1024.6 hPa Calm     85 % 0.00 in /  0 mm
07:41 33.0 °F /  0.6 °C 29.3 °F /  -1.5 °C 30.25 in /  1024.3 hPa Calm     86 % 0.00 in /  0 mm
07:46 33.2 °F /  0.7 °C 29.5 °F /  -1.4 °C 30.26 in /  1024.6 hPa Calm     86 % 0.00 in /  0 mm
07:51 34.2 °F /  1.2 °C 30.7 °F /  -0.7 °C 30.26 in /  1024.6 hPa Calm     87 % 0.00 in /  0 mm
07:56 35.5 °F /  1.9 °C 30.8 °F /  -0.7 °C 30.26 in /  1024.6 hPa Calm     83 % 0.00 in /  0 mm
08:01 36.2 °F /  2.3 °C 30.6 °F /  -0.8 °C 30.26 in /  1024.6 hPa Calm     80 % 0.00 in /  0 mm
08:06 36.5 °F /  2.5 °C 30.3 °F /  -0.9 °C 30.26 in /  1024.6 hPa Calm     78 % 0.00 in /  0 mm
08:11 36.8 °F /  2.7 °C 30.9 °F /  -0.6 °C 30.26 in /  1024.6 hPa Calm     79 % 0.00 in /  0 mm
08:16 37.7 °F /  3.2 °C 31.8 °F /  -0.1 °C 30.26 in /  1024.6 hPa South 1.2 mph /  1.9 km/h 1.2 mph /  1.9 km/h 79 % 0.00 in /  0 mm
08:21 38.9 °F /  3.8 °C 32.3 °F /  0.2 °C 30.26 in /  1024.6 hPa ESE 1.2 mph /  1.9 km/h 1.2 mph /  1.9 km/h 77 % 0.00 in /  0 mm
08:26 39.3 °F /  4.1 °C 31.7 °F /  -0.2 °C 30.26 in /  1024.6 hPa SE 1.2 mph /  1.9 km/h   74 % 0.00 in /  0 mm
08:31 40.0 °F /  4.4 °C 31.0 °F /  -0.6 °C 30.26 in /  1024.6 hPa SE 1.2 mph /  1.9 km/h   70 % 0.00 in /  0 mm
08:36 41.0 °F /  5 °C 31.2 °F /  -0.4 °C 30.26 in /  1024.6 hPa East 2.3 mph /  3.7 km/h 2.3 mph /  3.7 km/h 68 % 0.00 in /  0 mm
08:41 42.1 °F /  5.6 °C 31.2 °F /  -0.4 °C 30.26 in /  1024.6 hPa SSE 3.5 mph /  5.6 km/h 3.5 mph /  5.6 km/h 65 % 0.00 in /  0 mm
08:46 42.9 °F /  6.1 °C 31.2 °F /  -0.4 °C 30.26 in /  1024.6 hPa Calm     63 % 0.00 in /  0 mm
08:51 43.8 °F /  6.6 °C 30.4 °F /  -0.9 °C 30.26 in /  1024.6 hPa South 3.5 mph /  5.6 km/h 3.5 mph /  5.6 km/h 59 % 0.00 in /  0 mm
08:56 44.3 °F /  6.8 °C 30.0 °F /  -1.1 °C 30.26 in /  1024.6 hPa East 3.0 mph /  4.8 km/h 3.0 mph /  4.8 km/h 57 % 0.00 in /  0 mm
09:01 45.3 °F /  7.4 °C 29.6 °F /  -1.3 °C 30.26 in /  1024.6 hPa ESE 3.5 mph /  5.6 km/h 3.5 mph /  5.6 km/h 54 % 0.00 in /  0 mm
09:06 46.2 °F /  7.9 °C 30.0 °F /  -1.1 °C 30.26 in /  1024.6 hPa SE 3.5 mph /  5.6 km/h 3.5 mph /  5.6 km/h 53 % 0.00 in /  0 mm
09:11 47.0 °F /  8.3 °C 29.3 °F /  -1.5 °C 30.25 in /  1024.3 hPa South 2.3 mph /  3.7 km/h 2.3 mph /  3.7 km/h 50 % 0.00 in /  0 mm
09:16 47.7 °F /  8.7 °C 28.9 °F /  -1.7 °C 30.25 in /  1024.3 hPa SSE 3.5 mph /  5.6 km/h 3.5 mph /  5.6 km/h 48 % 0.00 in /  0 mm
09:21 48.2 °F /  9 °C 27.8 °F /  -2.3 °C 30.25 in /  1024.3 hPa SSE 3.5 mph /  5.6 km/h 3.5 mph /  5.6 km/h 45 % 0.00 in /  0 mm
09:26 48.8 °F /  9.3 °C 27.8 °F /  -2.3 °C 30.25 in /  1024.3 hPa SE 3.5 mph /  5.6 km/h 3.5 mph /  5.6 km/h 44 % 0.00 in /  0 mm
09:31 49.2 °F /  9.6 °C 28.2 °F /  -2.1 °C 30.25 in /  1024.3 hPa South 2.3 mph /  3.7 km/h 2.3 mph /  3.7 km/h 44 % 0.00 in /  0 mm
09:36 50.0 °F /  10 °C 28.4 °F /  -2 °C 30.25 in /  1024.3 hPa SSW 4.0 mph /  6.4 km/h 4.0 mph /  6.4 km/h 43 % 0.00 in /  0 mm
09:41 50.5 °F /  10.3 °C 27.7 °F /  -2.4 °C 30.26 in /  1024.6 hPa ENE 2.3 mph /  3.7 km/h 2.3 mph /  3.7 km/h 41 % 0.00 in /  0 mm
09:46 51.2 °F /  10.7 °C 27.7 °F /  -2.4 °C 30.26 in /  1024.6 hPa SE 1.2 mph /  1.9 km/h 1.2 mph /  1.9 km/h 40 % 0.00 in /  0 mm
09:51 51.8 °F /  11 °C 28.2 °F /  -2.1 °C 30.26 in /  1024.6 hPa Calm   0.1 mph /  0.2 km/h 40 % 0.00 in /  0 mm
09:56 51.9 °F /  11.1 °C 27.7 °F /  -2.4 °C 30.26 in /  1024.6 hPa South 1.2 mph /  1.9 km/h   39 % 0.00 in /  0 mm
10:01 52.1 °F /  11.2 °C 28.5 °F /  -1.9 °C 30.26 in /  1024.6 hPa South 1.2 mph /  1.9 km/h 1.2 mph /  1.9 km/h 40 % 0.00 in /  0 mm
10:06 52.4 °F /  11.3 °C 27.5 °F /  -2.5 °C 30.26 in /  1024.6 hPa ESE 1.2 mph /  1.9 km/h 1.2 mph /  1.9 km/h 38 % 0.00 in /  0 mm
10:11 52.5 °F /  11.4 °C 28.2 °F /  -2.1 °C 30.27 in /  1024.9 hPa SSE 3.5 mph /  5.6 km/h   39 % 0.00 in /  0 mm
10:16 52.5 °F /  11.4 °C 28.2 °F /  -2.1 °C 30.27 in /  1024.9 hPa SSE 1.2 mph /  1.9 km/h 1.2 mph /  1.9 km/h 39 % 0.00 in /  0 mm
10:21 52.6 °F /  11.4 °C 27.7 °F /  -2.4 °C 30.27 in /  1024.9 hPa NNW 2.0 mph /  3.2 km/h 2.0 mph /  3.2 km/h 38 % 0.00 in /  0 mm
10:26 52.2 °F /  11.2 °C 26.7 °F /  -2.9 °C 30.27 in /  1024.9 hPa SE 3.0 mph /  4.8 km/h 3.0 mph /  4.8 km/h 37 % 0.00 in /  0 mm
10:31 52.0 °F /  11.1 °C 27.1 °F /  -2.7 °C 30.27 in /  1024.9 hPa SSE 3.0 mph /  4.8 km/h 3.0 mph /  4.8 km/h 38 % 0.00 in /  0 mm
10:36 52.1 °F /  11.2 °C 27.9 °F /  -2.3 °C 30.27 in /  1024.9 hPa SSW 1.2 mph /  1.9 km/h   39 % 0.00 in /  0 mm
10:41 52.3 °F /  11.3 °C 27.4 °F /  -2.6 °C 30.27 in /  1024.9 hPa SSE 2.0 mph /  3.2 km/h 2.0 mph /  3.2 km/h 38 % 0.00 in /  0 mm
10:46 52.9 °F /  11.6 °C 28.0 °F /  -2.2 °C 30.27 in /  1024.9 hPa North 3.0 mph /  4.8 km/h 3.0 mph /  4.8 km/h 38 % 0.00 in /  0 mm
10:51 53.6 °F /  12 °C 27.9 °F /  -2.3 °C 30.27 in /  1024.9 hPa North 1.2 mph /  1.9 km/h 1.2 mph /  1.9 km/h 37 % 0.00 in /  0 mm
10:56 53.5 °F /  11.9 °C 29.1 °F /  -1.6 °C 30.27 in /  1024.9 hPa SE 3.5 mph /  5.6 km/h 3.5 mph /  5.6 km/h 39 % 0.00 in /  0 mm
11:01 54.3 °F /  12.4 °C 28.6 °F /  -1.9 °C 30.27 in /  1024.9 hPa SSW 4.6 mph /  7.4 km/h 4.6 mph /  7.4 km/h 37 % 0.00 in /  0 mm
11:06 54.9 °F /  12.7 °C 29.7 °F /  -1.3 °C 30.27 in /  1024.9 hPa SW 1.2 mph /  1.9 km/h 1.2 mph /  1.9 km/h 38 % 0.00 in /  0 mm
11:11 54.3 °F /  12.4 °C 28.6 °F /  -1.9 °C 30.27 in /  1024.9 hPa NW 2.3 mph /  3.7 km/h 2.3 mph /  3.7 km/h 37 % 0.00 in /  0 mm
11:16 53.9 °F /  12.2 °C 30.1 °F /  -1.1 °C 30.26 in /  1024.6 hPa West 1.2 mph /  1.9 km/h 1.2 mph /  1.9 km/h 40 % 0.00 in /  0 mm
11:21 53.8 °F /  12.1 °C 28.8 °F /  -1.8 °C 30.26 in /  1024.6 hPa NNW 2.3 mph /  3.7 km/h 2.3 mph /  3.7 km/h 38 % 0.00 in /  0 mm
11:26 54.1 °F /  12.3 °C 29.7 °F /  -1.3 °C 30.26 in /  1024.6 hPa SW 3.5 mph /  5.6 km/h 3.5 mph /  5.6 km/h 39 % 0.00 in /  0 mm
11:31 54.5 °F /  12.5 °C 30.0 °F /  -1.1 °C 30.26 in /  1024.6 hPa SSW 4.0 mph /  6.4 km/h 4.0 mph /  6.4 km/h 39 % 0.00 in /  0 mm
11:36 54.8 °F /  12.7 °C 29.7 °F /  -1.3 °C 30.26 in /  1024.6 hPa SSE 3.5 mph /  5.6 km/h 3.5 mph /  5.6 km/h 38 % 0.00 in /  0 mm
11:41 54.9 °F /  12.7 °C 29.7 °F /  -1.3 °C 30.26 in /  1024.6 hPa NNW 2.0 mph /  3.2 km/h 2.0 mph /  3.2 km/h 38 % 0.00 in /  0 mm
11:46 54.6 °F /  12.6 °C 28.8 °F /  -1.8 °C 30.26 in /  1024.6 hPa WNW 3.5 mph /  5.6 km/h 3.5 mph /  5.6 km/h 37 % 0.00 in /  0 mm
11:51 54.3 °F /  12.4 °C 28.6 °F /  -1.9 °C 30.25 in /  1024.3 hPa NW 2.3 mph /  3.7 km/h 2.3 mph /  3.7 km/h 37 % 0.00 in /  0 mm
11:56 54.7 °F /  12.6 °C 30.2 °F /  -1 °C 30.25 in /  1024.3 hPa SE 1.2 mph /  1.9 km/h 1.2 mph /  1.9 km/h 39 % 0.00 in /  0 mm
12:01 55.6 °F /  13.1 °C 30.4 °F /  -0.9 °C 30.25 in /  1024.3 hPa NNW 3.5 mph /  5.6 km/h 3.5 mph /  5.6 km/h 38 % 0.00 in /  0 mm
12:06 56.0 °F /  13.3 °C 30.7 °F /  -0.7 °C 30.24 in /  1023.9 hPa South 3.5 mph /  5.6 km/h 3.5 mph /  5.6 km/h 38 % 0.00 in /  0 mm
12:11 56.6 °F /  13.7 °C 29.9 °F /  -1.2 °C 30.24 in /  1023.9 hPa NW 1.2 mph /  1.9 km/h 1.2 mph /  1.9 km/h 36 % 0.00 in /  0 mm
12:16 56.6 °F /  13.7 °C 29.2 °F /  -1.6 °C 30.24 in /  1023.9 hPa East 1.2 mph /  1.9 km/h   35 % 0.00 in /  0 mm
12:21 56.3 °F /  13.5 °C 28.3 °F /  -2.1 °C 30.23 in /  1023.6 hPa NW 3.5 mph /  5.6 km/h 3.5 mph /  5.6 km/h 34 % 0.00 in /  0 mm
12:26 55.9 °F /  13.3 °C 28.6 °F /  -1.9 °C 30.23 in /  1023.6 hPa South 2.3 mph /  3.7 km/h 2.3 mph /  3.7 km/h 35 % 0.00 in /  0 mm
12:31 57.0 °F /  13.9 °C 28.9 °F /  -1.7 °C 30.23 in /  1023.6 hPa SSE 1.2 mph /  1.9 km/h 2.0 mph /  3.2 km/h 34 % 0.00 in /  0 mm
12:36 57.6 °F /  14.2 °C 29.4 °F /  -1.4 °C 30.23 in /  1023.6 hPa SE 1.2 mph /  1.9 km/h 1.2 mph /  1.9 km/h 34 % 0.00 in /  0 mm
12:41 57.8 °F /  14.3 °C 28.9 °F /  -1.7 °C 30.22 in /  1023.2 hPa WNW 1.2 mph /  1.9 km/h 1.2 mph /  1.9 km/h 33 % 0.00 in /  0 mm
12:46 57.4 °F /  14.1 °C 29.9 °F /  -1.2 °C 30.22 in /  1023.2 hPa NW 4.6 mph /  7.4 km/h 4.6 mph /  7.4 km/h 35 % 0.00 in /  0 mm
12:51 57.2 °F /  14 °C 29.8 °F /  -1.2 °C 30.22 in /  1023.2 hPa WNW 1.2 mph /  1.9 km/h 1.2 mph /  1.9 km/h 35 % 0.00 in /  0 mm
12:56 57.3 °F /  14.1 °C 28.4 °F /  -2 °C 30.21 in /  1022.9 hPa North 3.5 mph /  5.6 km/h 3.5 mph /  5.6 km/h 33 % 0.00 in /  0 mm
13:02 57.2 °F /  14 °C 29.1 °F /  -1.6 °C 30.21 in /  1022.9 hPa NNW 3.5 mph /  5.6 km/h 3.5 mph /  5.6 km/h 34 % 0.00 in /  0 mm
13:07 56.7 °F /  13.7 °C 28.6 °F /  -1.9 °C 30.21 in /  1022.9 hPa NW 1.2 mph /  1.9 km/h 1.2 mph /  1.9 km/h 34 % 0.00 in /  0 mm
13:12 57.0 °F /  13.9 °C 28.9 °F /  -1.7 °C 30.21 in /  1022.9 hPa NW 3.5 mph /  5.6 km/h 3.5 mph /  5.6 km/h 34 % 0.00 in /  0 mm
13:17 57.2 °F /  14 °C 29.8 °F /  -1.2 °C 30.21 in /  1022.9 hPa NW 2.3 mph /  3.7 km/h 2.3 mph /  3.7 km/h 35 % 0.00 in /  0 mm
13:22 57.4 °F /  14.1 °C 27.7 °F /  -2.4 °C 30.20 in /  1022.6 hPa NW 2.3 mph /  3.7 km/h 2.3 mph /  3.7 km/h 32 % 0.00 in /  0 mm
13:27 57.6 °F /  14.2 °C 28.7 °F /  -1.8 °C 30.20 in /  1022.6 hPa WNW 2.3 mph /  3.7 km/h 2.3 mph /  3.7 km/h 33 % 0.00 in /  0 mm
13:32 57.8 °F /  14.3 °C 27.3 °F /  -2.6 °C 30.20 in /  1022.6 hPa NW 2.3 mph /  3.7 km/h 2.3 mph /  3.7 km/h 31 % 0.00 in /  0 mm
13:37 58.3 °F /  14.6 °C 29.3 °F /  -1.5 °C 30.20 in /  1022.6 hPa SE 2.3 mph /  3.7 km/h 2.3 mph /  3.7 km/h 33 % 0.00 in /  0 mm
13:42 58.8 °F /  14.9 °C 29.0 °F /  -1.7 °C 30.20 in /  1022.6 hPa SSE 3.5 mph /  5.6 km/h 3.5 mph /  5.6 km/h 32 % 0.00 in /  0 mm
13:47 58.7 °F /  14.8 °C 28.9 °F /  -1.7 °C 30.20 in /  1022.6 hPa NW 3.5 mph /  5.6 km/h 3.5 mph /  5.6 km/h 32 % 0.00 in /  0 mm
13:52 58.0 °F /  14.4 °C 27.5 °F /  -2.5 °C 30.19 in /  1022.2 hPa NW 3.5 mph /  5.6 km/h 3.5 mph /  5.6 km/h 31 % 0.00 in /  0 mm
13:57 58.4 °F /  14.7 °C 28.6 °F /  -1.9 °C 30.19 in /  1022.2 hPa NW 4.0 mph /  6.4 km/h 4.0 mph /  6.4 km/h 32 % 0.00 in /  0 mm
14:02 58.4 °F /  14.7 °C 27.9 °F /  -2.3 °C 30.19 in /  1022.2 hPa NW 3.5 mph /  5.6 km/h 3.5 mph /  5.6 km/h 31 % 0.00 in /  0 mm
14:07 58.3 °F /  14.6 °C 27.8 °F /  -2.3 °C 30.19 in /  1022.2 hPa WNW 2.0 mph /  3.2 km/h 2.0 mph /  3.2 km/h 31 % 0.00 in /  0 mm
14:12 58.0 °F /  14.4 °C 27.5 °F /  -2.5 °C 30.19 in /  1022.2 hPa NW 3.5 mph /  5.6 km/h 3.5 mph /  5.6 km/h 31 % 0.00 in /  0 mm
14:17 57.7 °F /  14.3 °C 28.0 °F /  -2.2 °C 30.19 in /  1022.2 hPa WNW 5.8 mph /  9.3 km/h 5.8 mph /  9.3 km/h 32 % 0.00 in /  0 mm
14:22 57.9 °F /  14.4 °C 28.2 °F /  -2.1 °C 30.19 in /  1022.2 hPa WNW 2.3 mph /  3.7 km/h 2.3 mph /  3.7 km/h 32 % 0.00 in /  0 mm
14:27 57.7 °F /  14.3 °C 28.0 °F /  -2.2 °C 30.19 in /  1022.2 hPa WNW 2.3 mph /  3.7 km/h 2.3 mph /  3.7 km/h 32 % 0.00 in /  0 mm
14:32 57.7 °F /  14.3 °C 28.0 °F /  -2.2 °C 30.19 in /  1022.2 hPa East 1.2 mph /  1.9 km/h 1.2 mph /  1.9 km/h 32 % 0.00 in /  0 mm
14:37 57.9 °F /  14.4 °C 29.7 °F /  -1.3 °C 30.19 in /  1022.2 hPa South 3.0 mph /  4.8 km/h 3.0 mph /  4.8 km/h 34 % 0.00 in /  0 mm
14:42 58.4 °F /  14.7 °C 28.6 °F /  -1.9 °C 30.19 in /  1022.2 hPa WNW 3.0 mph /  4.8 km/h 3.0 mph /  4.8 km/h 32 % 0.00 in /  0 mm
14:47 58.2 °F /  14.6 °C 28.5 °F /  -1.9 °C 30.19 in /  1022.2 hPa NW 3.5 mph /  5.6 km/h 3.5 mph /  5.6 km/h 32 % 0.00 in /  0 mm
14:52 57.7 °F /  14.3 °C 28.0 °F /  -2.2 °C 30.19 in /  1022.2 hPa SE 3.5 mph /  5.6 km/h 3.5 mph /  5.6 km/h 32 % 0.00 in /  0 mm
14:57 57.7 °F /  14.3 °C 28.8 °F /  -1.8 °C 30.18 in /  1021.9 hPa NE 1.2 mph /  1.9 km/h 1.2 mph /  1.9 km/h 33 % 0.00 in /  0 mm
15:02 58.1 °F /  14.5 °C 29.8 °F /  -1.2 °C 30.18 in /  1021.9 hPa WNW 3.5 mph /  5.6 km/h 3.5 mph /  5.6 km/h 34 % 0.00 in /  0 mm
15:07 57.9 °F /  14.4 °C 28.9 °F /  -1.7 °C 30.18 in /  1021.9 hPa NW 5.0 mph /  8 km/h 5.0 mph /  8 km/h 33 % 0.00 in /  0 mm
15:12 57.3 °F /  14.1 °C 28.4 °F /  -2 °C 30.18 in /  1021.9 hPa NW 3.5 mph /  5.6 km/h 3.5 mph /  5.6 km/h 33 % 0.00 in /  0 mm
15:17 56.6 °F /  13.7 °C 28.5 °F /  -1.9 °C 30.18 in /  1021.9 hPa NW 3.5 mph /  5.6 km/h 3.5 mph /  5.6 km/h 34 % 0.00 in /  0 mm
15:22 56.1 °F /  13.4 °C 28.8 °F /  -1.8 °C 30.18 in /  1021.9 hPa NW 3.5 mph /  5.6 km/h 3.5 mph /  5.6 km/h 35 % 0.00 in /  0 mm
15:27 56.4 °F /  13.6 °C 29.7 °F /  -1.3 °C 30.17 in /  1021.6 hPa NW 4.6 mph /  7.4 km/h 4.6 mph /  7.4 km/h 36 % 0.00 in /  0 mm
15:32 56.4 °F /  13.6 °C 29.7 °F /  -1.3 °C 30.17 in /  1021.6 hPa NNW 4.6 mph /  7.4 km/h 4.6 mph /  7.4 km/h 36 % 0.00 in /  0 mm
15:37 55.9 °F /  13.3 °C 29.3 °F /  -1.5 °C 30.17 in /  1021.6 hPa NW 4.0 mph /  6.4 km/h 4.0 mph /  6.4 km/h 36 % 0.00 in /  0 mm
15:42 56.0 °F /  13.3 °C 30.1 °F /  -1.1 °C 30.17 in /  1021.6 hPa NW 3.5 mph /  5.6 km/h 3.5 mph /  5.6 km/h 37 % 0.00 in /  0 mm
15:47 55.5 °F /  13.1 °C 30.3 °F /  -0.9 °C 30.17 in /  1021.6 hPa NNW 3.5 mph /  5.6 km/h 3.5 mph /  5.6 km/h 38 % 0.00 in /  0 mm
15:52 55.0 °F /  12.8 °C 29.2 °F /  -1.6 °C 30.17 in /  1021.6 hPa WNW 3.5 mph /  5.6 km/h 3.5 mph /  5.6 km/h 37 % 0.00 in /  0 mm
15:57 54.6 °F /  12.6 °C 30.1 °F /  -1.1 °C 30.17 in /  1021.6 hPa NW 3.5 mph /  5.6 km/h 3.5 mph /  5.6 km/h 39 % 0.00 in /  0 mm
16:02 54.4 °F /  12.4 °C 30.6 °F /  -0.8 °C 30.17 in /  1021.6 hPa WNW 2.3 mph /  3.7 km/h 2.3 mph /  3.7 km/h 40 % 0.00 in /  0 mm
16:07 54.8 °F /  12.7 °C 31.5 °F /  -0.3 °C 30.17 in /  1021.6 hPa NW 3.5 mph /  5.6 km/h 3.5 mph /  5.6 km/h 41 % 0.00 in /  0 mm
16:12 55.3 °F /  12.9 °C 30.7 °F /  -0.7 °C 30.17 in /  1021.6 hPa NW 5.0 mph /  8 km/h 5.0 mph /  8 km/h 39 % 0.00 in /  0 mm
16:17 55.3 °F /  12.9 °C 30.7 °F /  -0.7 °C 30.17 in /  1021.6 hPa NW 4.6 mph /  7.4 km/h 4.6 mph /  7.4 km/h 39 % 0.00 in /  0 mm
16:22 54.9 °F /  12.7 °C 31.0 °F /  -0.6 °C 30.17 in /  1021.6 hPa NW 2.3 mph /  3.7 km/h 2.3 mph /  3.7 km/h 40 % 0.00 in /  0 mm
16:27 54.6 °F /  12.6 °C 30.7 °F /  -0.7 °C 30.17 in /  1021.6 hPa NW 3.5 mph /  5.6 km/h 3.5 mph /  5.6 km/h 40 % 0.00 in /  0 mm
16:32 54.9 °F /  12.7 °C 30.4 °F /  -0.9 °C 30.17 in /  1021.6 hPa North 6.9 mph /  11.1 km/h 6.9 mph /  11.1 km/h 39 % 0.00 in /  0 mm
16:37 55.0 °F /  12.8 °C 30.5 °F /  -0.8 °C 30.16 in /  1021.2 hPa NW 2.3 mph /  3.7 km/h 2.3 mph /  3.7 km/h 39 % 0.00 in /  0 mm
16:42 55.0 °F /  12.8 °C 31.1 °F /  -0.5 °C 30.16 in /  1021.2 hPa NW 2.3 mph /  3.7 km/h 2.3 mph /  3.7 km/h 40 % 0.00 in /  0 mm
16:47 54.9 °F /  12.7 °C 31.0 °F /  -0.6 °C 30.16 in /  1021.2 hPa NW 3.5 mph /  5.6 km/h 3.5 mph /  5.6 km/h 40 % 0.00 in /  0 mm
16:52 54.8 °F /  12.7 °C 32.1 °F /  0.1 °C 30.16 in /  1021.2 hPa NW 2.3 mph /  3.7 km/h 2.3 mph /  3.7 km/h 42 % 0.00 in /  0 mm
16:57 54.7 °F /  12.6 °C 30.8 °F /  -0.7 °C 30.16 in /  1021.2 hPa WNW 2.3 mph /  3.7 km/h 2.3 mph /  3.7 km/h 40 % 0.00 in /  0 mm
17:02 54.5 °F /  12.5 °C 30.0 °F /  -1.1 °C 30.16 in /  1021.2 hPa Calm     39 % 0.00 in /  0 mm
17:07 54.3 °F /  12.4 °C 29.8 °F /  -1.2 °C 30.16 in /  1021.2 hPa Calm     39 % 0.00 in /  0 mm
17:12 53.9 °F /  12.2 °C 30.7 °F /  -0.7 °C 30.16 in /  1021.2 hPa Calm     41 % 0.00 in /  0 mm
17:17 53.6 °F /  12 °C 30.4 °F /  -0.9 °C 30.16 in /  1021.2 hPa WNW 1.2 mph /  1.9 km/h   41 % 0.00 in /  0 mm
17:22 53.4 °F /  11.9 °C 29.7 °F /  -1.3 °C 30.15 in /  1020.9 hPa North 1.2 mph /  1.9 km/h 1.2 mph /  1.9 km/h 40 % 0.00 in /  0 mm
17:27 53.3 °F /  11.8 °C 29.6 °F /  -1.3 °C 30.15 in /  1020.9 hPa Calm     40 % 0.00 in /  0 mm
17:32 53.1 °F /  11.7 °C 29.4 °F /  -1.4 °C 30.15 in /  1020.9 hPa NW 1.2 mph /  1.9 km/h   40 % 0.00 in /  0 mm
17:37 52.6 °F /  11.4 °C 29.5 °F /  -1.4 °C 30.15 in /  1020.9 hPa Calm     41 % 0.00 in /  0 mm
17:42 52.2 °F /  11.2 °C 29.2 °F /  -1.6 °C 30.15 in /  1020.9 hPa Calm     41 % 0.00 in /  0 mm
17:47 51.7 °F /  10.9 °C 28.7 °F /  -1.8 °C 30.15 in /  1020.9 hPa Calm     41 % 0.00 in /  0 mm
17:52 51.6 °F /  10.9 °C 28.0 °F /  -2.2 °C 30.15 in /  1020.9 hPa Calm     40 % 0.00 in /  0 mm
17:57 51.2 °F /  10.7 °C 30.0 °F /  -1.1 °C 30.15 in /  1020.9 hPa Calm     44 % 0.00 in /  0 mm
18:02 50.5 °F /  10.3 °C 29.4 °F /  -1.4 °C 30.15 in /  1020.9 hPa Calm     44 % 0.00 in /  0 mm
18:07 50.0 °F /  10 °C 30.0 °F /  -1.1 °C 30.14 in /  1020.5 hPa Calm     46 % 0.00 in /  0 mm
18:12 49.5 °F /  9.7 °C 30.6 °F /  -0.8 °C 30.14 in /  1020.5 hPa Calm     48 % 0.00 in /  0 mm
18:17 49.3 °F /  9.6 °C 32.4 °F /  0.2 °C 30.15 in /  1020.9 hPa Calm     52 % 0.00 in /  0 mm
18:22 49.1 °F /  9.5 °C 31.7 °F /  -0.2 °C 30.14 in /  1020.5 hPa Calm     51 % 0.00 in /  0 mm
18:27 49.2 °F /  9.6 °C 32.3 °F /  0.2 °C 30.15 in /  1020.9 hPa Calm     52 % 0.00 in /  0 mm
18:32 49.1 °F /  9.5 °C 32.7 °F /  0.4 °C 30.15 in /  1020.9 hPa Calm     53 % 0.00 in /  0 mm
18:37 48.9 °F /  9.4 °C 32.0 °F /  0 °C 30.15 in /  1020.9 hPa Calm     52 % 0.00 in /  0 mm
18:42 49.0 °F /  9.4 °C 34.9 °F /  1.6 °C 30.15 in /  1020.9 hPa Calm     58 % 0.00 in /  0 mm
18:47 48.7 °F /  9.3 °C 33.2 °F /  0.7 °C 30.15 in /  1020.9 hPa Calm     55 % 0.00 in /  0 mm
18:52 48.6 °F /  9.2 °C 34.0 °F /  1.1 °C 30.15 in /  1020.9 hPa Calm     57 % 0.00 in /  0 mm
18:57 48.6 °F /  9.2 °C 34.5 °F /  1.4 °C 30.16 in /  1021.2 hPa Calm     58 % 0.00 in /  0 mm
19:02 48.4 °F /  9.1 °C 35.6 °F /  2 °C 30.16 in /  1021.2 hPa Calm     61 % 0.00 in /  0 mm
19:07 48.4 °F /  9.1 °C 33.0 °F /  0.6 °C 30.16 in /  1021.2 hPa WNW 1.2 mph /  1.9 km/h 1.2 mph /  1.9 km/h 55 % 0.00 in /  0 mm
19:12 49.0 °F /  9.4 °C 31.6 °F /  -0.2 °C 30.17 in /  1021.6 hPa South 3.0 mph /  4.8 km/h 3.0 mph /  4.8 km/h 51 % 0.00 in /  0 mm
19:17 49.7 °F /  9.8 °C 30.8 °F /  -0.7 °C 30.17 in /  1021.6 hPa NW 3.5 mph /  5.6 km/h 3.5 mph /  5.6 km/h 48 % 0.00 in /  0 mm
19:22 50.1 °F /  10.1 °C 30.6 °F /  -0.8 °C 30.17 in /  1021.6 hPa NW 6.0 mph /  9.7 km/h 6.0 mph /  9.7 km/h 47 % 0.00 in /  0 mm
19:27 50.2 °F /  10.1 °C 32.8 °F /  0.4 °C 30.17 in /  1021.6 hPa NW 6.0 mph /  9.7 km/h 6.0 mph /  9.7 km/h 51 % 0.00 in /  0 mm
19:32 50.0 °F /  10 °C 33.5 °F /  0.8 °C 30.18 in /  1021.9 hPa WNW 6.9 mph /  11.1 km/h 6.9 mph /  11.1 km/h 53 % 0.00 in /  0 mm
19:37 49.7 °F /  9.8 °C 34.2 °F /  1.2 °C 30.18 in /  1021.9 hPa WNW 4.6 mph /  7.4 km/h 4.6 mph /  7.4 km/h 55 % 0.00 in /  0 mm
19:43 49.5 °F /  9.7 °C 33.5 °F /  0.8 °C 30.18 in /  1021.9 hPa NW 4.6 mph /  7.4 km/h 4.6 mph /  7.4 km/h 54 % 0.00 in /  0 mm
19:48 49.4 °F /  9.7 °C 33.9 °F /  1.1 °C 30.19 in /  1022.2 hPa NW 9.2 mph /  14.8 km/h 9.2 mph /  14.8 km/h 55 % 0.00 in /  0 mm
19:53 49.2 °F /  9.6 °C 35.0 °F /  1.7 °C 30.20 in /  1022.6 hPa WNW 3.5 mph /  5.6 km/h 3.5 mph /  5.6 km/h 58 % 0.00 in /  0 mm
19:58 48.3 °F /  9.1 °C 37.1 °F /  2.8 °C 30.20 in /  1022.6 hPa NW 8.1 mph /  13 km/h 8.1 mph /  13 km/h 65 % 0.00 in /  0 mm
20:03 46.6 °F /  8.1 °C 38.4 °F /  3.6 °C 30.21 in /  1022.9 hPa NNW 3.5 mph /  5.6 km/h 3.5 mph /  5.6 km/h 73 % 0.00 in /  0 mm
20:08 45.5 °F /  7.5 °C 38.7 °F /  3.7 °C 30.20 in /  1022.6 hPa NW 3.5 mph /  5.6 km/h 3.5 mph /  5.6 km/h 77 % 0.00 in /  0 mm
20:13 45.1 °F /  7.3 °C 38.6 °F /  3.7 °C 30.20 in /  1022.6 hPa NNW 2.3 mph /  3.7 km/h 2.3 mph /  3.7 km/h 78 % 0.00 in /  0 mm
20:18 45.0 °F /  7.2 °C 38.9 °F /  3.8 °C 30.20 in /  1022.6 hPa NNW 1.2 mph /  1.9 km/h 1.2 mph /  1.9 km/h 79 % 0.00 in /  0 mm
20:23 45.1 °F /  7.3 °C 38.6 °F /  3.7 °C 30.20 in /  1022.6 hPa Calm     78 % 0.00 in /  0 mm
20:28 45.1 °F /  7.3 °C 39.0 °F /  3.9 °C 30.20 in /  1022.6 hPa Calm     79 % 0.00 in /  0 mm
20:33 45.1 °F /  7.3 °C 39.0 °F /  3.9 °C 30.20 in /  1022.6 hPa Calm     79 % 0.00 in /  0 mm
20:38 45.0 °F /  7.2 °C 38.9 °F /  3.8 °C 30.20 in /  1022.6 hPa WNW 1.2 mph /  1.9 km/h 1.2 mph /  1.9 km/h 79 % 0.00 in /  0 mm
20:43 45.1 °F /  7.3 °C 39.3 °F /  4.1 °C 30.20 in /  1022.6 hPa Calm     80 % 0.00 in /  0 mm
20:48 45.1 °F /  7.3 °C 39.6 °F /  4.2 °C 30.20 in /  1022.6 hPa Calm     81 % 0.01 in /  0.25 mm
20:53 45.0 °F /  7.2 °C 39.8 °F /  4.3 °C 30.20 in /  1022.6 hPa Calm     82 % 0.01 in /  0.25 mm
20:58 44.9 °F /  7.2 °C 40.0 °F /  4.4 °C 30.20 in /  1022.6 hPa Calm     83 % 0.01 in /  0.25 mm
21:03 44.7 °F /  7.1 °C 39.9 °F /  4.4 °C 30.20 in /  1022.6 hPa Calm     83 % 0.01 in /  0.25 mm
21:08 44.4 °F /  6.9 °C 39.6 °F /  4.2 °C 30.20 in /  1022.6 hPa NE 1.2 mph /  1.9 km/h 1.2 mph /  1.9 km/h 83 % 0.01 in /  0.25 mm
21:13 44.3 °F /  6.8 °C 39.8 °F /  4.3 °C 30.20 in /  1022.6 hPa NE 2.3 mph /  3.7 km/h 2.3 mph /  3.7 km/h 84 % 0.01 in /  0.25 mm
21:18 44.1 °F /  6.7 °C 39.3 °F /  4.1 °C 30.20 in /  1022.6 hPa Calm     83 % 0.01 in /  0.25 mm
21:23 44.0 °F /  6.7 °C 39.2 °F /  4 °C 30.20 in /  1022.6 hPa Calm     83 % 0.01 in /  0.25 mm
21:28 43.8 °F /  6.6 °C 39.0 °F /  3.9 °C 30.20 in /  1022.6 hPa Calm     83 % 0.01 in /  0.25 mm
21:33 43.7 °F /  6.5 °C 39.5 °F /  4.2 °C 30.20 in /  1022.6 hPa Calm     85 % 0.01 in /  0.25 mm
21:38 43.6 °F /  6.4 °C 39.4 °F /  4.1 °C 30.20 in /  1022.6 hPa Calm     85 % 0.01 in /  0.25 mm
21:43 43.5 °F /  6.4 °C 39.3 °F /  4.1 °C 30.20 in /  1022.6 hPa Calm     85 % 0.01 in /  0.25 mm
21:48 43.3 °F /  6.3 °C 39.1 °F /  3.9 °C 30.20 in /  1022.6 hPa Calm     85 % 0.00 in /  0 mm
21:53 43.5 °F /  6.4 °C 39.3 °F /  4.1 °C 30.20 in /  1022.6 hPa NW 2.3 mph /  3.7 km/h 2.3 mph /  3.7 km/h 85 % 0.00 in /  0 mm
21:58 43.7 °F /  6.5 °C 39.5 °F /  4.2 °C 30.20 in /  1022.6 hPa NW 1.2 mph /  1.9 km/h 1.2 mph /  1.9 km/h 85 % 0.00 in /  0 mm
22:03 43.9 °F /  6.6 °C 39.4 °F /  4.1 °C 30.20 in /  1022.6 hPa NW 1.2 mph /  1.9 km/h 1.2 mph /  1.9 km/h 84 % 0.00 in /  0 mm
22:08 43.9 °F /  6.6 °C 39.4 °F /  4.1 °C 30.20 in /  1022.6 hPa WNW 1.2 mph /  1.9 km/h 1.2 mph /  1.9 km/h 84 % 0.00 in /  0 mm
22:13 43.9 °F /  6.6 °C 39.7 °F /  4.3 °C 30.21 in /  1022.9 hPa WNW 1.2 mph /  1.9 km/h 1.2 mph /  1.9 km/h 85 % 0.00 in /  0 mm
22:18 43.8 °F /  6.6 °C 39.9 °F /  4.4 °C 30.21 in /  1022.9 hPa NW 1.2 mph /  1.9 km/h 1.2 mph /  1.9 km/h 86 % 0.00 in /  0 mm
22:23 43.8 °F /  6.6 °C 39.9 °F /  4.4 °C 30.21 in /  1022.9 hPa Calm     86 % 0.01 in /  0.25 mm
22:28 43.7 °F /  6.5 °C 40.1 °F /  4.5 °C 30.20 in /  1022.6 hPa Calm     87 % 0.01 in /  0.25 mm
22:33 43.6 °F /  6.4 °C 39.7 °F /  4.3 °C 30.20 in /  1022.6 hPa North 1.2 mph /  1.9 km/h   86 % 0.01 in /  0.25 mm
22:38 43.5 °F /  6.4 °C 39.9 °F /  4.4 °C 30.20 in /  1022.6 hPa Calm     87 % 0.01 in /  0.25 mm
22:43 43.2 °F /  6.2 °C 39.6 °F /  4.2 °C 30.20 in /  1022.6 hPa Calm     87 % 0.01 in /  0.25 mm
22:48 43.0 °F /  6.1 °C 39.4 °F /  4.1 °C 30.20 in /  1022.6 hPa Calm     87 % 0.01 in /  0.25 mm
22:53 42.8 °F /  6 °C 39.5 °F /  4.2 °C 30.20 in /  1022.6 hPa Calm     88 % 0.01 in /  0.25 mm
22:58 42.7 °F /  5.9 °C 39.7 °F /  4.3 °C 30.20 in /  1022.6 hPa Calm     89 % 0.01 in /  0.25 mm
23:03 42.8 °F /  6 °C 39.8 °F /  4.3 °C 30.20 in /  1022.6 hPa Calm     89 % 0.01 in /  0.25 mm
23:08 42.9 °F /  6.1 °C 39.6 °F /  4.2 °C 30.20 in /  1022.6 hPa Calm     88 % 0.01 in /  0.25 mm
23:13 43.2 °F /  6.2 °C 39.9 °F /  4.4 °C 30.20 in /  1022.6 hPa Calm     88 % 0.01 in /  0.25 mm
23:18 43.4 °F /  6.3 °C 39.8 °F /  4.3 °C 30.20 in /  1022.6 hPa Calm     87 % 0.01 in /  0.25 mm
23:23 43.6 °F /  6.4 °C 40.0 °F /  4.4 °C 30.20 in /  1022.6 hPa North 1.2 mph /  1.9 km/h 1.2 mph /  1.9 km/h 87 % 0.00 in /  0 mm
23:28 43.8 °F /  6.6 °C 39.9 °F /  4.4 °C 30.21 in /  1022.9 hPa NW 1.2 mph /  1.9 km/h 1.2 mph /  1.9 km/h 86 % 0.00 in /  0 mm
23:33 43.9 °F /  6.6 °C 39.7 °F /  4.3 °C 30.21 in /  1022.9 hPa NNW 2.3 mph /  3.7 km/h 2.3 mph /  3.7 km/h 85 % 0.00 in /  0 mm
23:38 43.8 °F /  6.6 °C 39.3 °F /  4.1 °C 30.21 in /  1022.9 hPa NW 1.2 mph /  1.9 km/h 1.2 mph /  1.9 km/h 84 % 0.00 in /  0 mm
23:43 43.9 °F /  6.6 °C 39.1 °F /  3.9 °C 30.21 in /  1022.9 hPa NW 2.3 mph /  3.7 km/h 2.3 mph /  3.7 km/h 83 % 0.00 in /  0 mm
23:48 43.8 °F /  6.6 °C 39.0 °F /  3.9 °C 30.21 in /  1022.9 hPa NW 3.5 mph /  5.6 km/h 3.5 mph /  5.6 km/h 83 % 0.00 in /  0 mm
23:53 43.5 °F /  6.4 °C 39.0 °F /  3.9 °C 30.22 in /  1023.2 hPa NW 3.0 mph /  4.8 km/h 3.0 mph /  4.8 km/h 84 % 0.00 in /  0 mm
23:58 43.1 °F /  6.2 °C 38.9 °F /  3.8 °C 30.21 in /  1022.9 hPa WNW 3.5 mph /  5.6 km/h 3.5 mph /  5.6 km/h 85 % 0.00 in /  0 mm
Park Place, Exeter, Tulare County, California, USA
Compliments of Weather Underground - 2.75 mb